createdAt,value
2019-05-30T00:00:05.735Z,100231.00
2019-05-30T00:02:22.444Z,100214.00
2019-05-30T00:04:52.123Z,100214.00
2019-05-30T00:07:22.599Z,100220.00
2019-05-30T00:09:52.507Z,100222.00
2019-05-30T00:12:22.263Z,100221.00
2019-05-30T00:14:51.950Z,100226.00
2019-05-30T00:17:21.675Z,100225.00
2019-05-30T00:19:54.809Z,100218.00
2019-05-30T00:22:24.887Z,100228.00
2019-05-30T00:24:55.898Z,100227.00
2019-05-30T00:27:25.906Z,100220.00
2019-05-30T00:29:55.609Z,100223.00
2019-05-30T00:32:25.295Z,100232.00
2019-05-30T00:34:57.802Z,100218.00
2019-05-30T00:37:27.633Z,100234.00
2019-05-30T00:39:57.829Z,100238.00
2019-05-30T00:42:27.748Z,100234.00
2019-05-30T00:44:57.901Z,100246.00
2019-05-30T00:47:29.152Z,100243.00
2019-05-30T00:49:59.998Z,100248.00
2019-05-30T00:52:30.211Z,100238.00
2019-05-30T00:55:00.675Z,100236.00
2019-05-30T00:57:30.365Z,100243.00
2019-05-30T01:00:00.922Z,100237.00
2019-05-30T01:02:30.799Z,100242.00
2019-05-30T01:05:01.538Z,100236.00
2019-05-30T01:07:32.308Z,100245.00
2019-05-30T01:10:03.161Z,100243.00
2019-05-30T01:12:32.848Z,100241.00
2019-05-30T01:15:03.428Z,100230.00
2019-05-30T01:17:33.473Z,100237.00
2019-05-30T01:20:03.265Z,100228.00
2019-05-30T01:22:32.950Z,100230.00
2019-05-30T01:25:04.383Z,100226.00
2019-05-30T01:27:34.254Z,100219.00
2019-05-30T01:30:05.795Z,100222.00
2019-05-30T01:32:35.511Z,100228.00
2019-05-30T01:35:06.420Z,100224.00
2019-05-30T01:37:36.122Z,100234.00
2019-05-30T01:40:09.009Z,100231.00
2019-05-30T01:42:38.924Z,100236.00
2019-05-30T01:45:11.054Z,100232.00
2019-05-30T01:47:40.833Z,100235.00
2019-05-30T01:50:13.027Z,100242.00
2019-05-30T01:52:42.759Z,100234.00
2019-05-30T01:55:13.242Z,100232.00
2019-05-30T01:57:42.979Z,100232.00
2019-05-30T02:00:21.092Z,100229.00
2019-05-30T02:02:47.510Z,100232.00
2019-05-30T02:05:18.450Z,100238.00
2019-05-30T02:07:48.144Z,100248.00
2019-05-30T02:10:18.506Z,100236.00
2019-05-30T02:12:48.182Z,100241.00
2019-05-30T02:15:18.600Z,100246.00
2019-05-30T02:17:48.270Z,100246.00
2019-05-30T02:20:18.135Z,100251.00
2019-05-30T02:22:47.837Z,100246.00
2019-05-30T02:25:18.092Z,100245.00
2019-05-30T02:27:47.603Z,100246.00
2019-05-30T02:30:19.265Z,100246.00
2019-05-30T02:32:48.927Z,100244.00
2019-05-30T02:35:18.864Z,100246.00
2019-05-30T02:37:48.637Z,100237.00
2019-05-30T02:40:19.299Z,100246.00
2019-05-30T02:42:48.975Z,100244.00
2019-05-30T02:45:18.848Z,100240.00
2019-05-30T02:47:48.529Z,100247.00
2019-05-30T02:50:20.114Z,100250.00
2019-05-30T02:52:49.830Z,100242.00
2019-05-30T02:55:19.511Z,100252.00
2019-05-30T02:57:49.193Z,100255.00
2019-05-30T03:00:22.243Z,100258.00
2019-05-30T03:02:51.914Z,100259.00
2019-05-30T03:05:23.032Z,100265.00
2019-05-30T03:07:52.751Z,100263.00
2019-05-30T03:10:22.747Z,100259.00
2019-05-30T03:12:52.828Z,100259.00
2019-05-30T03:15:23.130Z,100269.00
2019-05-30T03:17:53.643Z,100265.00
2019-05-30T03:20:23.787Z,100269.00
2019-05-30T03:22:53.656Z,100271.00
2019-05-30T03:25:23.746Z,100264.00
2019-05-30T03:27:53.437Z,100269.00
2019-05-30T03:30:27.942Z,100259.00
2019-05-30T03:33:12.036Z,100282.00
2019-05-30T03:35:30.062Z,100277.00
2019-05-30T03:37:58.219Z,100277.00
2019-05-30T03:40:29.822Z,100282.00
2019-05-30T03:42:59.499Z,100283.00
2019-05-30T03:45:31.254Z,100298.00
2019-05-30T03:48:09.135Z,100298.00
2019-05-30T03:50:41.801Z,100295.00
2019-05-30T03:53:14.364Z,100237.00
2019-05-30T03:55:47.644Z,100288.00
2019-05-30T03:58:39.939Z,100287.00
2019-05-30T04:01:18.573Z,100290.00
2019-05-30T04:04:14.565Z,100290.00
2019-05-30T04:06:51.538Z,100292.00
2019-05-30T04:09:25.953Z,100282.00
2019-05-30T04:12:17.102Z,100277.00
2019-05-30T04:14:51.030Z,100273.00
2019-05-30T04:17:20.687Z,100263.00
2019-05-30T04:19:51.338Z,100265.00
2019-05-30T04:22:21.018Z,100266.00
2019-05-30T04:24:50.688Z,100278.00
2019-05-30T04:27:20.381Z,100271.00
2019-05-30T04:29:50.049Z,100270.00
2019-05-30T04:32:19.721Z,100272.00
2019-05-30T04:34:49.421Z,100285.00
2019-05-30T04:37:19.220Z,100289.00
2019-05-30T04:39:48.866Z,100288.00
2019-05-30T04:42:20.565Z,100287.00
2019-05-30T04:44:49.977Z,100297.00
2019-05-30T04:47:20.838Z,100285.00
2019-05-30T04:49:50.645Z,100286.00
2019-05-30T04:52:24.345Z,100300.00
2019-05-30T04:54:51.802Z,100296.00
2019-05-30T04:57:26.784Z,100286.00
2019-05-30T04:59:52.902Z,100282.00
2019-05-30T05:02:23.270Z,100269.00
2019-05-30T05:04:53.164Z,100277.00
2019-05-30T05:07:22.849Z,100278.00
2019-05-30T05:09:52.617Z,100271.00
2019-05-30T05:12:22.920Z,100269.00
2019-05-30T05:14:52.855Z,100277.00
2019-05-30T05:17:23.134Z,100281.00
2019-05-30T05:19:53.018Z,100288.00
2019-05-30T05:22:24.270Z,100235.00
2019-05-30T05:24:54.151Z,100281.00
2019-05-30T05:27:24.173Z,100272.00
2019-05-30T05:29:53.882Z,100272.00
2019-05-30T05:32:27.526Z,100287.00
2019-05-30T05:34:57.343Z,100298.00
2019-05-30T05:37:27.411Z,100297.00
2019-05-30T05:39:57.143Z,100295.00
2019-05-30T05:42:29.087Z,100306.00
2019-05-30T05:44:58.639Z,100303.00
2019-05-30T05:47:28.868Z,100316.00
2019-05-30T05:50:00.159Z,100308.00
2019-05-30T05:52:29.987Z,100309.00
2019-05-30T05:54:59.748Z,100309.00
2019-05-30T05:57:29.430Z,100290.00
2019-05-30T05:59:59.171Z,100307.00
2019-05-30T06:02:29.094Z,100326.00
2019-05-30T06:04:59.687Z,100326.00
2019-05-30T06:07:29.372Z,100331.00
2019-05-30T06:10:00.167Z,100341.00
2019-05-30T06:12:29.883Z,100337.00
2019-05-30T06:15:01.053Z,100335.00
2019-05-30T06:17:32.011Z,100335.00
2019-05-30T06:20:02.762Z,100339.00
2019-05-30T06:22:32.460Z,100344.00
2019-05-30T06:25:04.313Z,100323.00
2019-05-30T06:27:34.012Z,100330.00
2019-05-30T06:30:08.826Z,100336.00
2019-05-30T06:32:38.509Z,100318.00
2019-05-30T06:35:10.154Z,100338.00
2019-05-30T06:37:41.103Z,100324.00
2019-05-30T06:40:14.037Z,100318.00
2019-05-30T06:42:45.182Z,100322.00
2019-05-30T06:45:15.269Z,100332.00
2019-05-30T06:47:44.961Z,100341.00
2019-05-30T06:50:15.028Z,100342.00
2019-05-30T06:52:45.660Z,100343.00
2019-05-30T06:55:15.960Z,100348.00
2019-05-30T06:57:45.686Z,100335.00
2019-05-30T07:00:15.465Z,100342.00
2019-05-30T07:02:45.385Z,100335.00
2019-05-30T07:05:15.946Z,100352.00
2019-05-30T07:07:46.112Z,100350.00
2019-05-30T07:10:17.943Z,100357.00
2019-05-30T07:12:47.651Z,100368.00
2019-05-30T07:15:19.220Z,100374.00
2019-05-30T07:17:50.380Z,100367.00
2019-05-30T07:20:20.705Z,100387.00
2019-05-30T07:22:50.491Z,100388.00
2019-05-30T07:25:20.651Z,100383.00
2019-05-30T07:27:50.379Z,100387.00
2019-05-30T07:30:21.255Z,100382.00
2019-05-30T07:32:52.107Z,100382.00
2019-05-30T07:35:21.908Z,100391.00
2019-05-30T07:37:51.572Z,100388.00
2019-05-30T07:40:21.245Z,100385.00
2019-05-30T07:42:52.941Z,100388.00
2019-05-30T07:45:24.758Z,100394.00
2019-05-30T07:47:54.594Z,100414.00
2019-05-30T07:50:24.576Z,100421.00
2019-05-30T07:52:54.266Z,100410.00
2019-05-30T07:55:24.004Z,100407.00
2019-05-30T07:57:53.710Z,100416.00
2019-05-30T08:00:27.359Z,100434.00
2019-05-30T08:02:57.338Z,100400.00
2019-05-30T08:05:28.703Z,100408.00
2019-05-30T08:08:00.185Z,100402.00
2019-05-30T08:10:29.976Z,100417.00
2019-05-30T08:12:59.952Z,100418.00
2019-05-30T08:15:29.653Z,100402.00
2019-05-30T08:18:00.797Z,100401.00
2019-05-30T08:20:33.929Z,100409.00
2019-05-30T08:23:04.208Z,100406.00
2019-05-30T08:25:34.285Z,100408.00
2019-05-30T08:28:04.053Z,100415.00
2019-05-30T08:30:34.624Z,100402.00
2019-05-30T08:33:09.431Z,100412.00
2019-05-30T08:35:49.192Z,100408.00
2019-05-30T08:38:11.236Z,100409.00
2019-05-30T08:40:41.034Z,100409.00
2019-05-30T08:43:10.795Z,100403.00
2019-05-30T08:45:42.892Z,100409.00
2019-05-30T08:48:12.637Z,100415.00
2019-05-30T08:50:44.600Z,100423.00
2019-05-30T08:53:13.709Z,100410.00
2019-05-30T08:55:43.999Z,100427.00
2019-05-30T08:58:13.744Z,100429.00
2019-05-30T09:00:52.366Z,100412.00
2019-05-30T09:03:22.041Z,100427.00
2019-05-30T09:06:02.800Z,100418.00
2019-05-30T09:08:24.762Z,100413.00
2019-05-30T09:10:54.450Z,100419.00
2019-05-30T09:13:24.346Z,100426.00
2019-05-30T09:15:54.643Z,100424.00
2019-05-30T09:18:25.957Z,100429.00
2019-05-30T09:20:55.637Z,100424.00
2019-05-30T09:23:25.342Z,100425.00
2019-05-30T09:25:56.503Z,100425.00
2019-05-30T09:28:26.188Z,100427.00
2019-05-30T09:30:57.379Z,100428.00
2019-05-30T09:33:27.230Z,100435.00
2019-05-30T09:36:12.283Z,100449.00
2019-05-30T09:38:28.804Z,100447.00
2019-05-30T09:40:58.466Z,100442.00
2019-05-30T09:43:28.145Z,100442.00
2019-05-30T09:45:57.847Z,100449.00
2019-05-30T09:48:27.627Z,100443.00
2019-05-30T09:50:57.299Z,100454.00
2019-05-30T09:53:28.365Z,100456.00
2019-05-30T09:55:58.125Z,100450.00
2019-05-30T09:58:27.829Z,100438.00
2019-05-30T10:00:57.682Z,100453.00
2019-05-30T10:03:27.345Z,100461.00
2019-05-30T10:05:57.028Z,100462.00
2019-05-30T10:08:26.740Z,100477.00
2019-05-30T10:10:56.459Z,100467.00
2019-05-30T10:13:26.252Z,100475.00
2019-05-30T10:15:56.733Z,100486.00
2019-05-30T10:18:27.317Z,100482.00
2019-05-30T10:20:57.143Z,100490.00
2019-05-30T10:23:27.361Z,100481.00
2019-05-30T10:25:57.503Z,100474.00
2019-05-30T10:28:27.573Z,100494.00
2019-05-30T10:30:59.330Z,100445.00
2019-05-30T10:33:28.672Z,100484.00
2019-05-30T10:35:58.311Z,100493.00
2019-05-30T10:38:28.026Z,100493.00
2019-05-30T10:40:57.699Z,100497.00
2019-05-30T10:43:27.454Z,100524.00
2019-05-30T10:45:59.589Z,100510.00
2019-05-30T10:48:30.450Z,100521.00
2019-05-30T10:51:01.671Z,100505.00
2019-05-30T10:53:32.605Z,100515.00
2019-05-30T10:56:03.091Z,100516.00
2019-05-30T10:58:32.829Z,100523.00
2019-05-30T11:01:02.837Z,100531.00
2019-05-30T11:03:32.537Z,100545.00
2019-05-30T11:06:09.545Z,100536.00
2019-05-30T11:08:41.345Z,100547.00
2019-05-30T11:11:12.489Z,100538.00
2019-05-30T11:13:43.988Z,100546.00
2019-05-30T11:16:13.696Z,100534.00
2019-05-30T11:18:44.963Z,100539.00
2019-05-30T11:21:16.267Z,100538.00
2019-05-30T11:23:47.925Z,100546.00
2019-05-30T11:26:20.485Z,100549.00
2019-05-30T11:28:50.500Z,100558.00
2019-05-30T11:31:20.395Z,100549.00
2019-05-30T11:33:50.807Z,100559.00
2019-05-30T11:36:20.872Z,100559.00
2019-05-30T11:38:53.682Z,100559.00
2019-05-30T11:41:23.381Z,100544.00
2019-05-30T11:43:53.631Z,100565.00
2019-05-30T11:46:23.288Z,100576.00
2019-05-30T11:48:53.670Z,100582.00
2019-05-30T11:51:23.587Z,100581.00
2019-05-30T11:53:56.083Z,100596.00
2019-05-30T11:56:25.843Z,100595.00
2019-05-30T11:58:56.004Z,100608.00
2019-05-30T12:01:26.085Z,100578.00
2019-05-30T12:03:56.532Z,100587.00
2019-05-30T12:06:27.056Z,100596.00
2019-05-30T12:08:56.995Z,100588.00
2019-05-30T12:11:26.898Z,100593.00
2019-05-30T12:13:59.397Z,100583.00
2019-05-30T12:16:29.262Z,100595.00
2019-05-30T12:18:59.694Z,100605.00
2019-05-30T12:21:30.049Z,100606.00
2019-05-30T12:24:00.302Z,100615.00
2019-05-30T12:26:33.164Z,100608.00
2019-05-30T12:29:02.336Z,100617.00
2019-05-30T12:31:32.047Z,100626.00
2019-05-30T12:34:02.723Z,100617.00
2019-05-30T12:36:32.670Z,100604.00
2019-05-30T12:39:02.896Z,100617.00
2019-05-30T12:41:32.612Z,100624.00
2019-05-30T12:44:03.472Z,100620.00
2019-05-30T12:46:33.463Z,100626.00
2019-05-30T12:49:03.667Z,100616.00
2019-05-30T12:51:33.524Z,100616.00
2019-05-30T12:54:04.678Z,100633.00
2019-05-30T12:56:34.428Z,100615.00
2019-05-30T12:59:04.154Z,100627.00
2019-05-30T13:01:34.470Z,100623.00
2019-05-30T13:04:04.452Z,100620.00
2019-05-30T13:06:34.159Z,100619.00
2019-05-30T13:09:05.122Z,100631.00
2019-05-30T13:11:34.701Z,100622.00
2019-05-30T13:14:04.941Z,100624.00
2019-05-30T13:16:34.631Z,100629.00
2019-05-30T13:19:04.473Z,100626.00
2019-05-30T13:21:34.516Z,100622.00
2019-05-30T13:24:04.206Z,100630.00
2019-05-30T13:26:35.246Z,100630.00
2019-05-30T13:29:04.955Z,100633.00
2019-05-30T13:31:34.664Z,100637.00
2019-05-30T13:34:04.964Z,100645.00
2019-05-30T13:36:34.724Z,100641.00
2019-05-30T13:39:05.896Z,100648.00
2019-05-30T13:41:36.068Z,100655.00
2019-05-30T13:44:09.841Z,100654.00
2019-05-30T13:46:39.664Z,100641.00
2019-05-30T13:49:09.429Z,100629.00
2019-05-30T13:51:39.118Z,100637.00
2019-05-30T13:54:10.013Z,100635.00
2019-05-30T13:56:39.776Z,100637.00
2019-05-30T13:59:10.123Z,100653.00
2019-05-30T14:01:40.091Z,100658.00
2019-05-30T14:04:10.456Z,100658.00
2019-05-30T14:06:40.218Z,100657.00
2019-05-30T14:09:11.496Z,100651.00
2019-05-30T14:11:41.206Z,100663.00
2019-05-30T14:14:12.565Z,100644.00
2019-05-30T14:16:42.256Z,100660.00
2019-05-30T14:19:13.430Z,100659.00
2019-05-30T14:21:44.577Z,100658.00
2019-05-30T14:24:14.245Z,100664.00
2019-05-30T14:26:43.956Z,100666.00
2019-05-30T14:29:15.109Z,100654.00
2019-05-30T14:31:44.795Z,100660.00
2019-05-30T14:34:14.493Z,100658.00
2019-05-30T14:36:44.178Z,100666.00
2019-05-30T14:39:15.340Z,100661.00
2019-05-30T14:41:45.058Z,100667.00
2019-05-30T14:44:14.732Z,100664.00
2019-05-30T14:46:44.507Z,100664.00
2019-05-30T14:49:14.026Z,100662.00
2019-05-30T14:51:43.768Z,100652.00
2019-05-30T14:54:13.558Z,100661.00
2019-05-30T14:56:43.957Z,100670.00
2019-05-30T14:59:13.640Z,100652.00
2019-05-30T15:01:43.326Z,100654.00
2019-05-30T15:04:13.470Z,100644.00
2019-05-30T15:06:43.399Z,100658.00
2019-05-30T15:09:22.072Z,100644.00
2019-05-30T15:11:46.022Z,100641.00
2019-05-30T15:14:16.947Z,100628.00
2019-05-30T15:16:46.789Z,100655.00
2019-05-30T15:19:16.610Z,100655.00
2019-05-30T15:21:46.309Z,100645.00
2019-05-30T15:24:16.068Z,100647.00
2019-05-30T15:26:45.771Z,100647.00
2019-05-30T15:29:16.297Z,100683.00
2019-05-30T15:31:46.204Z,100689.00
2019-05-30T15:34:16.828Z,100681.00
2019-05-30T15:36:46.716Z,100678.00
2019-05-30T15:39:31.551Z,100674.00
2019-05-30T15:41:47.999Z,100669.00
2019-05-30T15:44:17.789Z,100650.00
2019-05-30T15:46:47.950Z,100670.00
2019-05-30T15:49:18.425Z,100675.00
2019-05-30T15:51:48.967Z,100672.00
2019-05-30T15:54:19.160Z,100677.00
2019-05-30T15:56:49.212Z,100683.00
2019-05-30T15:59:19.829Z,100691.00
2019-05-30T16:01:49.854Z,100668.00
2019-05-30T16:04:20.507Z,100671.00
2019-05-30T16:06:50.339Z,100671.00
2019-05-30T16:09:20.947Z,100668.00
2019-05-30T16:11:50.704Z,100670.00
2019-05-30T16:14:21.543Z,100654.00
2019-05-30T16:16:51.444Z,100649.00
2019-05-30T16:19:26.030Z,100646.00
2019-05-30T16:21:52.797Z,100649.00
2019-05-30T16:24:22.475Z,100662.00
2019-05-30T16:26:53.799Z,100659.00
2019-05-30T16:29:23.504Z,100670.00
2019-05-30T16:31:53.162Z,100667.00
2019-05-30T16:34:22.856Z,100660.00
2019-05-30T16:36:52.759Z,100668.00
2019-05-30T16:39:22.672Z,100679.00
2019-05-30T16:41:52.392Z,100666.00
2019-05-30T16:44:22.535Z,100671.00
2019-05-30T16:46:52.710Z,100683.00
2019-05-30T16:49:22.918Z,100689.00
2019-05-30T16:51:52.662Z,100675.00
2019-05-30T16:54:23.446Z,100683.00
2019-05-30T16:56:54.584Z,100684.00
2019-05-30T16:59:43.529Z,100608.00
2019-05-30T17:02:14.848Z,100707.00
2019-05-30T17:04:44.558Z,100686.00
2019-05-30T17:07:14.998Z,100688.00
2019-05-30T17:09:44.946Z,100693.00
2019-05-30T17:12:15.406Z,100693.00
2019-05-30T17:14:45.244Z,100711.00
2019-05-30T17:17:16.234Z,100684.00
2019-05-30T17:19:46.084Z,100698.00
2019-05-30T17:22:16.610Z,100690.00
2019-05-30T17:24:46.598Z,100680.00
2019-05-30T17:27:17.292Z,100684.00
2019-05-30T17:29:47.273Z,100674.00
2019-05-30T17:32:17.790Z,100684.00
2019-05-30T17:34:47.645Z,100682.00
2019-05-30T17:37:18.109Z,100693.00
2019-05-30T17:39:47.922Z,100695.00
2019-05-30T17:42:19.063Z,100702.00
2019-05-30T17:44:49.453Z,100695.00
2019-05-30T17:47:19.310Z,100694.00
2019-05-30T17:49:49.041Z,100702.00
2019-05-30T17:52:19.619Z,100700.00
2019-05-30T17:54:49.500Z,100702.00
2019-05-30T17:57:19.910Z,100714.00
2019-05-30T17:59:49.922Z,100714.00
2019-05-30T18:02:20.349Z,100710.00
2019-05-30T18:04:50.101Z,100704.00
2019-05-30T18:07:20.777Z,100711.00
2019-05-30T18:09:50.572Z,100712.00
2019-05-30T18:12:20.930Z,100720.00
2019-05-30T18:14:50.933Z,100717.00
2019-05-30T18:17:21.537Z,100709.00
2019-05-30T18:19:51.216Z,100724.00
2019-05-30T18:22:21.425Z,100725.00
2019-05-30T18:24:51.182Z,100727.00
2019-05-30T18:27:21.701Z,100718.00
2019-05-30T18:29:51.354Z,100719.00
2019-05-30T18:32:21.967Z,100732.00
2019-05-30T18:34:57.107Z,100722.00
2019-05-30T18:37:24.913Z,100717.00
2019-05-30T18:39:56.456Z,100712.00
2019-05-30T18:42:27.306Z,100714.00
2019-05-30T18:44:57.326Z,100707.00
2019-05-30T18:47:27.116Z,100730.00
2019-05-30T18:49:56.900Z,100725.00
2019-05-30T18:52:26.589Z,100723.00
2019-05-30T18:54:56.286Z,100723.00
2019-05-30T18:57:26.617Z,100735.00
2019-05-30T18:59:56.474Z,100726.00
2019-05-30T19:02:27.102Z,100734.00
2019-05-30T19:04:56.743Z,100743.00
2019-05-30T19:07:26.746Z,100747.00
2019-05-30T19:09:56.494Z,100744.00
2019-05-30T19:12:26.174Z,100745.00
2019-05-30T19:14:58.585Z,100748.00
2019-05-30T19:17:29.575Z,100760.00
2019-05-30T19:19:59.240Z,100764.00
2019-05-30T19:22:30.005Z,100762.00
2019-05-30T19:25:00.333Z,100772.00
2019-05-30T19:27:35.010Z,100775.00
2019-05-30T19:30:03.838Z,100791.00
2019-05-30T19:32:36.833Z,100790.00
2019-05-30T19:35:08.992Z,100788.00
2019-05-30T19:37:38.896Z,100778.00
2019-05-30T19:40:10.511Z,100796.00
2019-05-30T19:42:40.289Z,100796.00
2019-05-30T19:45:12.144Z,100795.00
2019-05-30T19:47:41.845Z,100797.00
2019-05-30T19:50:13.888Z,100809.00
2019-05-30T19:52:46.790Z,100814.00
2019-05-30T19:55:16.573Z,100803.00
2019-05-30T19:57:46.261Z,100800.00
2019-05-30T20:00:17.376Z,100796.00
2019-05-30T20:02:48.423Z,100795.00
2019-05-30T20:05:18.296Z,100789.00
2019-05-30T20:07:48.038Z,100794.00
2019-05-30T20:10:20.001Z,100794.00
2019-05-30T20:12:49.969Z,100803.00
2019-05-30T20:15:20.150Z,100799.00
2019-05-30T20:17:49.868Z,100796.00
2019-05-30T20:20:19.615Z,100790.00
2019-05-30T20:22:49.316Z,100795.00
2019-05-30T20:25:20.388Z,100805.00
2019-05-30T20:27:50.116Z,100796.00
2019-05-30T20:30:21.340Z,100799.00
2019-05-30T20:32:51.066Z,100791.00
2019-05-30T20:35:21.281Z,100804.00
2019-05-30T20:37:51.234Z,100809.00
2019-05-30T20:40:21.310Z,100815.00
2019-05-30T20:42:52.174Z,100809.00
2019-05-30T20:45:23.672Z,100817.00
2019-05-30T20:47:53.751Z,100800.00
2019-05-30T20:50:26.543Z,100810.00
2019-05-30T20:52:57.886Z,100803.00
2019-05-30T20:55:27.587Z,100816.00
2019-05-30T20:57:57.276Z,100812.00
2019-05-30T21:00:40.145Z,100821.00
2019-05-30T21:03:11.067Z,100824.00
2019-05-30T21:05:44.087Z,100822.00
2019-05-30T21:08:16.691Z,100820.00
2019-05-30T21:10:49.234Z,100830.00
2019-05-30T21:13:22.287Z,100825.00
2019-05-30T21:15:55.233Z,100837.00
2019-05-30T21:18:28.225Z,100829.00
2019-05-30T21:20:57.876Z,100828.00
2019-05-30T21:23:27.572Z,100839.00
2019-05-30T21:25:58.716Z,100839.00
2019-05-30T21:28:28.475Z,100852.00
2019-05-30T21:30:58.181Z,100844.00
2019-05-30T21:33:27.969Z,100845.00
2019-05-30T21:35:57.748Z,100854.00
2019-05-30T21:38:27.851Z,100844.00
2019-05-30T21:40:57.533Z,100844.00
2019-05-30T21:43:27.356Z,100834.00
2019-05-30T21:45:57.052Z,100839.00
2019-05-30T21:48:26.738Z,100837.00
2019-05-30T21:50:56.404Z,100834.00
2019-05-30T21:53:26.116Z,100826.00
2019-05-30T21:55:55.793Z,100839.00
2019-05-30T21:58:25.453Z,100830.00
2019-05-30T22:01:22.057Z,100831.00
2019-05-30T22:03:52.428Z,100836.00
2019-05-30T22:06:22.564Z,100826.00
2019-05-30T22:08:52.342Z,100838.00
2019-05-30T22:11:22.511Z,100794.00
2019-05-30T22:13:52.292Z,100839.00
2019-05-30T22:16:22.172Z,100834.00
2019-05-30T22:18:52.230Z,100844.00
2019-05-30T22:21:22.371Z,100845.00
2019-05-30T22:23:53.356Z,100839.00
2019-05-30T22:26:23.097Z,100855.00
2019-05-30T22:28:52.833Z,100829.00
2019-05-30T22:31:22.498Z,100836.00
2019-05-30T22:33:53.305Z,100838.00
2019-05-30T22:36:23.325Z,100835.00
2019-05-30T22:38:53.268Z,100844.00
2019-05-30T22:41:23.017Z,100837.00
2019-05-30T22:43:53.013Z,100844.00
2019-05-30T22:46:28.829Z,100834.00
2019-05-30T22:48:58.532Z,100839.00
2019-05-30T22:51:29.113Z,100833.00
2019-05-30T22:53:58.791Z,100838.00
2019-05-30T22:56:28.518Z,100835.00
2019-05-30T22:58:58.813Z,100837.00
2019-05-30T23:01:28.677Z,100838.00
2019-05-30T23:03:59.852Z,100844.00
2019-05-30T23:06:29.537Z,100835.00
2019-05-30T23:08:59.253Z,100843.00
2019-05-30T23:11:28.957Z,100859.00
2019-05-30T23:13:58.703Z,100855.00
2019-05-30T23:16:28.368Z,100854.00
2019-05-30T23:18:58.075Z,100848.00
2019-05-30T23:21:27.780Z,100851.00
2019-05-30T23:23:57.435Z,100853.00
2019-05-30T23:26:27.208Z,100850.00
2019-05-30T23:28:58.015Z,100846.00
2019-05-30T23:31:48.343Z,100855.00
2019-05-30T23:34:18.018Z,100857.00
2019-05-30T23:36:50.551Z,100855.00
2019-05-30T23:39:23.190Z,100859.00
2019-05-30T23:41:55.204Z,100861.00
2019-05-30T23:44:24.943Z,100865.00
2019-05-30T23:46:57.797Z,100867.00
2019-05-30T23:49:28.950Z,100867.00
2019-05-30T23:51:58.638Z,100861.00
2019-05-30T23:54:28.442Z,100868.00
2019-05-30T23:56:58.612Z,100865.00
2019-05-30T23:59:28.466Z,100861.00
